createdAt,value
2019-04-29T00:00:55.339Z,2.33
2019-04-29T00:03:24.477Z,2.90
2019-04-29T00:05:53.575Z,2.47
2019-04-29T00:08:22.704Z,2.83
2019-04-29T00:10:51.747Z,2.87
2019-04-29T00:13:20.926Z,2.53
2019-04-29T00:16:27.379Z,2.60
2019-04-29T00:19:12.511Z,2.70
2019-04-29T00:21:41.585Z,2.70
2019-04-29T00:24:10.718Z,2.53
2019-04-29T00:26:39.938Z,2.80
2019-04-29T00:29:08.882Z,2.90
2019-04-29T00:31:37.955Z,2.70
2019-04-29T00:34:07.166Z,2.67
2019-04-29T00:36:42.854Z,2.77
2019-04-29T00:39:27.000Z,2.90
2019-04-29T00:42:19.029Z,2.70
2019-04-29T00:44:47.976Z,2.60
2019-04-29T00:47:17.356Z,2.70
2019-04-29T00:49:46.472Z,2.97
2019-04-29T00:52:15.759Z,3.63
2019-04-29T00:54:53.521Z,3.43
2019-04-29T00:57:22.563Z,3.47
2019-04-29T00:59:51.631Z,2.77
2019-04-29T01:02:20.742Z,3.50
2019-04-29T01:04:50.510Z,2.70
2019-04-29T01:07:20.073Z,2.97
2019-04-29T01:09:49.054Z,3.43
2019-04-29T01:12:18.175Z,3.40
2019-04-29T01:14:47.677Z,2.87
2019-04-29T01:17:17.321Z,3.10
2019-04-29T01:19:46.338Z,3.00
2019-04-29T01:22:15.396Z,3.03
2019-04-29T01:24:44.307Z,3.17
2019-04-29T01:27:24.372Z,3.27
2019-04-29T01:29:53.798Z,3.40
2019-04-29T01:32:23.081Z,3.10
2019-04-29T01:34:53.934Z,2.90
2019-04-29T01:37:38.479Z,2.90
2019-04-29T01:40:29.705Z,3.20
2019-04-29T01:42:59.377Z,3.07
2019-04-29T01:45:28.344Z,2.90
2019-04-29T01:47:57.413Z,2.80
2019-04-29T01:50:28.687Z,3.03
2019-04-29T01:52:57.984Z,3.43
2019-04-29T01:55:27.226Z,3.17
2019-04-29T01:57:56.686Z,3.17
2019-04-29T02:00:25.728Z,2.73
2019-04-29T02:02:55.306Z,2.97
2019-04-29T02:05:24.527Z,3.20
2019-04-29T02:07:53.602Z,3.20
2019-04-29T02:10:32.163Z,2.90
2019-04-29T02:13:01.574Z,3.20
2019-04-29T02:15:30.722Z,2.90
2019-04-29T02:17:59.764Z,2.73
2019-04-29T02:20:28.855Z,3.33
2019-04-29T02:23:15.433Z,3.03
2019-04-29T02:25:45.567Z,2.83
2019-04-29T02:28:14.430Z,2.80
2019-04-29T02:30:46.820Z,2.90
2019-04-29T02:33:15.849Z,2.90
2019-04-29T02:35:44.874Z,2.80
2019-04-29T02:38:22.231Z,2.87
2019-04-29T02:41:09.074Z,2.80
2019-04-29T02:43:40.085Z,3.20
2019-04-29T02:46:09.111Z,2.83
2019-04-29T02:48:38.171Z,2.77
2019-04-29T02:51:07.170Z,3.00
2019-04-29T02:53:36.155Z,2.80
2019-04-29T02:56:05.258Z,3.13
2019-04-29T02:58:43.319Z,2.90
2019-04-29T03:01:29.912Z,2.70
2019-04-29T03:04:08.779Z,2.80
2019-04-29T03:06:37.854Z,2.87
2019-04-29T03:09:07.832Z,3.03
2019-04-29T03:11:36.850Z,2.80
2019-04-29T03:14:05.930Z,2.83
2019-04-29T03:16:35.206Z,2.83
2019-04-29T03:19:09.001Z,2.70
2019-04-29T03:21:44.340Z,2.83
2019-04-29T03:24:14.560Z,3.10
2019-04-29T03:26:43.593Z,3.20
2019-04-29T03:29:25.761Z,3.10
2019-04-29T03:31:57.265Z,3.67
2019-04-29T03:34:26.308Z,3.70
2019-04-29T03:36:55.415Z,4.03
2019-04-29T03:39:24.377Z,3.47
2019-04-29T03:41:53.522Z,3.43
2019-04-29T03:44:40.295Z,3.87
2019-04-29T03:47:09.364Z,3.90
2019-04-29T03:49:38.519Z,3.40
2019-04-29T03:52:07.765Z,4.67
2019-04-29T03:54:37.070Z,4.50
2019-04-29T03:57:07.113Z,3.60
2019-04-29T03:59:36.377Z,5.00
2019-04-29T04:02:28.494Z,3.40
2019-04-29T04:05:22.590Z,3.83
2019-04-29T04:07:58.909Z,3.30
2019-04-29T04:10:27.886Z,4.33
2019-04-29T04:12:57.184Z,3.37
2019-04-29T04:15:26.248Z,3.70
2019-04-29T04:18:10.022Z,3.40
2019-04-29T04:20:39.101Z,3.40
2019-04-29T04:23:08.243Z,3.20
2019-04-29T04:25:37.577Z,3.50
2019-04-29T04:28:06.568Z,3.40
2019-04-29T04:30:35.641Z,3.00
2019-04-29T04:33:04.638Z,3.10
2019-04-29T04:35:33.781Z,3.27
2019-04-29T04:38:02.965Z,3.73
2019-04-29T04:40:36.195Z,3.80
2019-04-29T04:43:05.567Z,3.20
2019-04-29T04:45:35.203Z,3.20
2019-04-29T04:48:04.337Z,3.50
2019-04-29T04:50:33.346Z,3.37
2019-04-29T04:53:02.683Z,2.90
2019-04-29T04:55:33.748Z,5.13
2019-04-29T04:58:02.754Z,3.40
2019-04-29T05:00:33.747Z,3.80
2019-04-29T05:03:02.738Z,3.00
2019-04-29T05:05:32.355Z,3.20
2019-04-29T05:08:01.277Z,3.10
2019-04-29T05:10:30.205Z,3.90
2019-04-29T05:12:59.430Z,3.90
2019-04-29T05:15:28.485Z,2.70
2019-04-29T05:17:57.601Z,3.83
2019-04-29T05:20:26.728Z,3.10
2019-04-29T05:23:02.777Z,2.93
2019-04-29T05:25:33.701Z,2.80
2019-04-29T05:28:04.238Z,4.10
2019-04-29T05:30:33.261Z,3.50
2019-04-29T05:33:02.444Z,3.73
2019-04-29T05:35:40.078Z,4.37
2019-04-29T05:38:15.408Z,3.10
2019-04-29T05:40:46.902Z,3.20
2019-04-29T05:43:18.292Z,3.27
2019-04-29T05:45:56.980Z,2.90
2019-04-29T05:48:27.621Z,3.10
2019-04-29T05:51:26.969Z,2.87
2019-04-29T05:53:55.958Z,3.20
2019-04-29T05:56:25.452Z,2.93
2019-04-29T05:58:54.556Z,2.97
2019-04-29T06:01:26.361Z,3.10
2019-04-29T06:03:55.578Z,3.77
2019-04-29T06:06:24.547Z,3.17
2019-04-29T06:09:51.394Z,2.73
2019-04-29T06:12:22.344Z,3.27
2019-04-29T06:14:51.840Z,2.90
2019-04-29T06:17:21.305Z,3.40
2019-04-29T06:19:50.211Z,3.30
2019-04-29T06:22:19.073Z,3.50
2019-04-29T06:24:48.052Z,3.07
2019-04-29T06:27:17.157Z,2.87
2019-04-29T06:29:46.645Z,3.00
2019-04-29T06:32:15.766Z,2.80
2019-04-29T06:34:44.882Z,3.17
2019-04-29T06:37:13.937Z,3.37
2019-04-29T06:39:44.075Z,3.20
2019-04-29T06:42:15.477Z,3.80
2019-04-29T06:44:44.532Z,5.17
2019-04-29T06:47:16.995Z,3.80
2019-04-29T06:49:46.080Z,3.60
2019-04-29T06:52:15.492Z,3.50
2019-04-29T06:54:45.091Z,3.50
2019-04-29T06:57:14.218Z,4.20
2019-04-29T06:59:47.570Z,3.80
2019-04-29T07:02:15.944Z,3.80
2019-04-29T07:04:45.418Z,3.90
2019-04-29T07:07:14.656Z,3.60
2019-04-29T07:09:43.776Z,3.83
2019-04-29T07:12:13.974Z,4.00
2019-04-29T07:14:43.236Z,3.77
2019-04-29T07:17:13.068Z,4.90
2019-04-29T07:19:42.699Z,6.33
2019-04-29T07:22:11.826Z,5.67
2019-04-29T07:24:40.980Z,5.50
2019-04-29T07:27:10.470Z,6.27
2019-04-29T07:29:39.498Z,6.03
2019-04-29T07:32:09.241Z,5.87
2019-04-29T07:34:39.601Z,5.83
2019-04-29T07:37:08.728Z,6.33
2019-04-29T07:39:38.224Z,6.20
2019-04-29T07:42:07.321Z,6.17
2019-04-29T07:44:48.893Z,8.07
2019-04-29T07:47:16.282Z,6.30
2019-04-29T07:49:47.288Z,7.67
2019-04-29T07:52:16.283Z,8.47
2019-04-29T07:54:48.246Z,7.47
2019-04-29T07:57:17.803Z,8.47
2019-04-29T07:59:47.319Z,7.40
2019-04-29T08:02:16.654Z,7.93
2019-04-29T08:04:46.066Z,8.60
2019-04-29T08:07:15.722Z,8.13
2019-04-29T08:09:45.360Z,8.40
2019-04-29T08:12:15.772Z,9.37
2019-04-29T08:14:46.099Z,8.93
2019-04-29T08:17:15.186Z,8.67
2019-04-29T08:19:44.470Z,8.57
2019-04-29T08:22:17.827Z,9.07
2019-04-29T08:24:45.973Z,9.27
2019-04-29T08:27:15.876Z,10.73
2019-04-29T08:29:45.093Z,11.47
2019-04-29T08:32:14.073Z,9.80
2019-04-29T08:34:43.739Z,11.40
2019-04-29T08:37:12.855Z,11.00
2019-04-29T08:39:42.053Z,11.47
2019-04-29T08:42:14.033Z,11.17
2019-04-29T08:45:09.370Z,11.93
2019-04-29T08:47:40.840Z,12.47
2019-04-29T08:50:09.967Z,12.10
2019-04-29T08:52:39.025Z,11.97
2019-04-29T08:55:08.259Z,11.13
2019-04-29T08:57:37.545Z,11.97
2019-04-29T09:00:09.112Z,11.00
2019-04-29T09:02:41.542Z,9.80
2019-04-29T09:05:11.300Z,11.43
2019-04-29T09:07:40.304Z,10.97
2019-04-29T09:10:10.583Z,10.13
2019-04-29T09:12:40.238Z,9.80
2019-04-29T09:15:09.949Z,7.90
2019-04-29T09:17:38.967Z,9.50
2019-04-29T09:20:08.423Z,9.47
2019-04-29T09:22:39.987Z,9.63
2019-04-29T09:28:15.075Z,10.73
2019-04-29T09:30:43.036Z,9.63
2019-04-29T09:33:13.191Z,11.17
2019-04-29T09:35:43.618Z,11.30
2019-04-29T09:38:12.983Z,8.30
2019-04-29T09:40:49.470Z,10.33
2019-04-29T09:43:36.901Z,10.87
2019-04-29T09:46:20.717Z,11.73
2019-04-29T09:48:55.964Z,14.03
2019-04-29T09:51:22.790Z,14.87
2019-04-29T09:53:55.488Z,12.83
2019-04-29T09:56:25.012Z,13.23
2019-04-29T09:59:14.073Z,12.83
2019-04-29T10:01:57.602Z,13.03
2019-04-29T10:04:36.166Z,13.40
2019-04-29T10:07:05.916Z,14.50
2019-04-29T10:09:35.435Z,15.63
2019-04-29T10:12:05.155Z,14.87
2019-04-29T10:14:40.823Z,14.67
2019-04-29T10:17:30.685Z,15.00
2019-04-29T10:20:11.273Z,13.83
2019-04-29T10:22:41.200Z,13.63
2019-04-29T10:25:11.216Z,12.07
2019-04-29T10:27:40.814Z,10.20
2019-04-29T10:30:15.183Z,10.17
2019-04-29T10:32:42.397Z,11.23
2019-04-29T10:35:16.216Z,10.77
2019-04-29T10:37:45.294Z,11.73
2019-04-29T10:40:48.641Z,11.20
2019-04-29T10:43:35.771Z,11.83
2019-04-29T10:46:36.224Z,11.93
2019-04-29T10:49:15.231Z,13.20
2019-04-29T10:51:44.614Z,12.87
2019-04-29T10:54:14.385Z,13.77
2019-04-29T10:56:43.939Z,12.80
2019-04-29T10:59:13.581Z,12.70
2019-04-29T11:02:28.457Z,11.00
2019-04-29T11:05:07.829Z,9.90
2019-04-29T11:07:37.670Z,8.70
2019-04-29T11:10:24.486Z,8.30
2019-04-29T11:12:44.392Z,9.43
2019-04-29T11:15:15.430Z,10.17
2019-04-29T11:17:58.918Z,9.00
2019-04-29T11:20:24.775Z,9.90
2019-04-29T11:23:17.529Z,8.03
2019-04-29T11:25:59.118Z,8.83
2019-04-29T11:28:28.390Z,9.30
2019-04-29T11:30:57.690Z,9.83
2019-04-29T11:33:40.117Z,11.17
2019-04-29T11:36:09.108Z,13.10
2019-04-29T11:38:42.344Z,12.47
2019-04-29T11:41:12.294Z,12.27
2019-04-29T11:43:42.634Z,11.97
2019-04-29T11:46:14.501Z,11.67
2019-04-29T11:48:43.196Z,10.27
2019-04-29T11:51:34.182Z,9.37
2019-04-29T11:54:01.382Z,9.50
2019-04-29T11:56:31.075Z,11.23
2019-04-29T11:59:09.624Z,12.63
2019-04-29T12:01:53.490Z,11.43
2019-04-29T12:04:33.136Z,10.07
2019-04-29T12:06:59.358Z,10.10
2019-04-29T12:09:30.498Z,9.97
2019-04-29T12:11:59.555Z,9.17
2019-04-29T12:14:50.723Z,8.73
2019-04-29T12:17:22.935Z,8.67
2019-04-29T12:19:55.409Z,9.40
2019-04-29T12:22:30.286Z,9.40
2019-04-29T12:24:55.696Z,7.60
2019-04-29T12:27:28.923Z,8.00
2019-04-29T12:29:59.916Z,9.50
2019-04-29T12:32:56.755Z,6.97
2019-04-29T12:35:30.279Z,6.30
2019-04-29T12:38:18.589Z,5.83
2019-04-29T12:41:20.858Z,6.60
2019-04-29T12:44:00.880Z,7.53
2019-04-29T12:46:45.094Z,7.33
2019-04-29T12:49:14.458Z,6.77
2019-04-29T12:51:43.724Z,6.80
2019-04-29T12:54:12.991Z,7.30
2019-04-29T12:56:43.330Z,7.47
2019-04-29T12:59:13.092Z,8.87
2019-04-29T13:02:01.378Z,8.43
2019-04-29T13:04:49.940Z,8.73
2019-04-29T13:07:30.556Z,7.93
2019-04-29T13:10:07.036Z,8.53
2019-04-29T13:12:34.020Z,8.17
2019-04-29T13:15:13.853Z,8.60
2019-04-29T13:18:02.685Z,8.63
2019-04-29T13:20:22.721Z,8.47
2019-04-29T13:22:51.864Z,8.27
2019-04-29T13:25:21.092Z,8.30
2019-04-29T13:27:50.252Z,7.83
2019-04-29T13:30:19.331Z,8.27
2019-04-29T13:32:48.453Z,7.93
2019-04-29T13:35:17.762Z,8.53
2019-04-29T13:37:46.886Z,9.73
2019-04-29T13:40:19.904Z,10.63
2019-04-29T13:42:52.266Z,11.80
2019-04-29T13:45:27.403Z,12.23
2019-04-29T13:48:15.804Z,10.70
2019-04-29T13:50:59.597Z,10.20
2019-04-29T13:53:29.053Z,11.07
2019-04-29T13:56:11.117Z,10.70
2019-04-29T13:58:29.336Z,10.57
2019-04-29T14:01:33.578Z,10.93
2019-04-29T14:04:31.818Z,12.17
2019-04-29T14:07:00.962Z,10.93
2019-04-29T14:09:30.130Z,10.50
2019-04-29T14:12:05.631Z,10.57
2019-04-29T14:14:30.551Z,10.00
2019-04-29T14:17:17.083Z,11.10
2019-04-29T14:19:40.917Z,10.83
2019-04-29T14:22:01.904Z,10.00
2019-04-29T14:24:31.210Z,10.03
2019-04-29T14:27:00.688Z,10.30
2019-04-29T14:29:30.383Z,10.33
2019-04-29T14:32:01.337Z,9.80
2019-04-29T14:34:39.608Z,10.57
2019-04-29T14:37:21.304Z,11.70
2019-04-29T14:39:39.465Z,10.93
2019-04-29T14:42:17.140Z,10.77
2019-04-29T14:44:58.037Z,10.23
2019-04-29T14:47:39.751Z,10.23
2019-04-29T14:50:10.667Z,9.27
2019-04-29T14:52:39.947Z,8.33
2019-04-29T14:55:09.101Z,8.77
2019-04-29T14:57:38.065Z,8.23
2019-04-29T15:00:12.963Z,8.07
2019-04-29T15:02:42.014Z,8.20
2019-04-29T15:05:12.212Z,8.07
2019-04-29T15:07:42.411Z,7.73
2019-04-29T15:10:11.676Z,7.10
2019-04-29T15:12:52.149Z,7.07
2019-04-29T15:15:38.808Z,7.60
2019-04-29T15:18:45.985Z,7.37
2019-04-29T15:21:09.775Z,7.33
2019-04-29T15:23:39.124Z,7.87
2019-04-29T15:26:08.153Z,7.00
2019-04-29T15:28:50.834Z,7.40
2019-04-29T15:31:21.692Z,9.90
2019-04-29T15:33:50.721Z,7.77
2019-04-29T15:36:19.747Z,8.20
2019-04-29T15:39:08.043Z,7.37
2019-04-29T15:41:19.628Z,8.00
2019-04-29T15:43:48.820Z,8.67
2019-04-29T15:46:18.188Z,9.33
2019-04-29T15:48:47.380Z,8.93
2019-04-29T15:51:16.390Z,9.80
2019-04-29T15:53:45.544Z,8.37
2019-04-29T15:58:45.399Z,9.33
2019-04-29T16:01:17.675Z,8.93
2019-04-29T16:03:45.292Z,7.90
2019-04-29T16:06:21.757Z,7.83
2019-04-29T16:08:58.751Z,7.80
2019-04-29T16:11:42.819Z,7.07
2019-04-29T16:14:21.363Z,6.53
2019-04-29T16:16:50.852Z,6.10
2019-04-29T16:19:19.946Z,6.50
2019-04-29T16:21:48.935Z,6.23
2019-04-29T16:24:26.468Z,6.43
2019-04-29T16:26:53.505Z,6.37
2019-04-29T16:29:19.576Z,6.50
2019-04-29T16:31:48.667Z,6.43
2019-04-29T16:34:17.823Z,6.23
2019-04-29T16:36:49.813Z,5.73
2019-04-29T16:39:17.911Z,6.20
2019-04-29T16:42:18.111Z,6.17
2019-04-29T16:44:47.239Z,6.60
2019-04-29T16:47:16.821Z,6.20
2019-04-29T16:49:46.106Z,6.07
2019-04-29T16:52:15.192Z,9.87
2019-04-29T16:54:44.729Z,6.20
2019-04-29T16:57:14.923Z,5.60
2019-04-29T16:59:44.363Z,5.90
2019-04-29T17:02:19.120Z,6.30
2019-04-29T17:04:44.446Z,5.83
2019-04-29T17:07:15.418Z,5.73
2019-04-29T17:10:03.509Z,5.80
2019-04-29T17:12:38.417Z,8.53
2019-04-29T17:15:23.554Z,5.10
2019-04-29T17:17:38.770Z,5.77
2019-04-29T17:20:08.526Z,5.93
2019-04-29T17:22:43.372Z,5.93
2019-04-29T17:25:10.415Z,5.80
2019-04-29T17:27:53.146Z,4.80
2019-04-29T17:30:53.993Z,4.50
2019-04-29T17:33:50.087Z,7.10
2019-04-29T17:35:17.622Z,8.90
2019-04-29T17:36:23.023Z,11.77
2019-04-29T17:38:48.214Z,7.10
2019-04-29T17:41:17.425Z,4.43
2019-04-29T17:44:18.258Z,4.23
2019-04-29T17:47:11.414Z,4.10
2019-04-29T17:50:02.205Z,3.70
2019-04-29T17:52:30.567Z,4.57
2019-04-29T17:55:08.819Z,12.40
2019-04-29T17:57:57.737Z,3.83
2019-04-29T18:00:55.214Z,3.57
2019-04-29T18:03:41.396Z,3.97
2019-04-29T18:06:49.762Z,4.10
2019-04-29T18:09:31.699Z,5.07
2019-04-29T18:12:09.920Z,4.83
2019-04-29T18:14:41.857Z,3.83
2019-04-29T18:17:11.885Z,4.10
2019-04-29T18:20:13.659Z,5.93
2019-04-29T18:23:19.888Z,4.03
2019-04-29T18:26:02.066Z,3.77
2019-04-29T18:28:31.239Z,3.80
2019-04-29T18:31:00.248Z,3.80
2019-04-29T18:33:30.397Z,3.80
2019-04-29T18:36:21.565Z,3.83
2019-04-29T18:38:42.470Z,3.53
2019-04-29T18:41:16.382Z,3.83
2019-04-29T18:43:45.180Z,3.93
2019-04-29T18:46:16.486Z,3.63
2019-04-29T18:48:45.732Z,3.93
2019-04-29T18:51:15.403Z,7.43
2019-04-29T18:53:44.586Z,4.87
2019-04-29T18:56:14.860Z,5.77
2019-04-29T18:58:46.875Z,3.47
2019-04-29T19:01:15.002Z,4.03
2019-04-29T19:03:52.476Z,4.60
2019-04-29T19:06:22.287Z,6.03
2019-04-29T19:08:56.546Z,4.63
2019-04-29T19:11:30.666Z,4.17
2019-04-29T19:13:54.180Z,4.30
2019-04-29T19:16:27.387Z,4.47
2019-04-29T19:18:57.728Z,5.20
2019-04-29T19:21:30.434Z,4.87
2019-04-29T19:24:00.455Z,5.60
2019-04-29T19:26:29.507Z,6.70
2019-04-29T19:29:01.261Z,5.93
2019-04-29T19:31:29.659Z,5.90
2019-04-29T19:33:59.028Z,4.80
2019-04-29T19:36:28.213Z,5.97
2019-04-29T19:38:57.436Z,6.10
2019-04-29T19:41:29.816Z,5.50
2019-04-29T19:43:58.924Z,6.27
2019-04-29T19:46:36.735Z,5.53
2019-04-29T19:49:07.522Z,5.57
2019-04-29T19:51:29.826Z,5.93
2019-04-29T19:53:58.979Z,6.77
2019-04-29T19:56:28.327Z,6.60
2019-04-29T19:58:58.328Z,7.77
2019-04-29T20:01:31.839Z,6.67
2019-04-29T20:04:42.147Z,6.17
2019-04-29T20:07:12.296Z,7.00
2019-04-29T20:09:42.941Z,7.90
2019-04-29T20:12:14.481Z,13.17
2019-04-29T20:14:43.713Z,8.63
2019-04-29T20:17:31.693Z,9.27
2019-04-29T20:20:25.082Z,10.50
2019-04-29T20:22:55.677Z,9.30
2019-04-29T20:25:32.351Z,11.60
2019-04-29T20:28:05.573Z,11.13
2019-04-29T20:30:27.078Z,10.60
2019-04-29T20:32:56.574Z,10.43
2019-04-29T20:35:25.991Z,9.17
2019-04-29T20:37:56.645Z,9.27
2019-04-29T20:40:42.982Z,10.50
2019-04-29T20:43:08.312Z,9.87
2019-04-29T20:45:38.179Z,10.17
2019-04-29T20:48:11.206Z,10.37
2019-04-29T20:50:45.264Z,11.13
2019-04-29T20:53:30.849Z,10.83
2019-04-29T20:56:09.429Z,10.43
2019-04-29T20:58:32.793Z,10.97
2019-04-29T21:01:03.081Z,13.30
2019-04-29T21:03:32.366Z,11.73
2019-04-29T21:06:02.881Z,11.70
2019-04-29T21:08:32.059Z,12.17
2019-04-29T21:11:05.770Z,11.27
2019-04-29T21:13:48.363Z,12.77
2019-04-29T21:16:35.563Z,14.00
2019-04-29T21:19:08.778Z,13.07
2019-04-29T21:21:42.098Z,14.10
2019-04-29T21:24:13.730Z,14.07
2019-04-29T21:26:44.433Z,14.53
2019-04-29T21:29:15.883Z,14.97
2019-04-29T21:31:42.475Z,14.77
2019-04-29T21:34:12.364Z,14.43
2019-04-29T21:37:09.971Z,14.83
2019-04-29T21:39:49.479Z,15.93
2019-04-29T21:42:35.097Z,16.27
2019-04-29T21:45:03.520Z,16.57
2019-04-29T21:47:41.621Z,16.50
2019-04-29T21:50:00.993Z,16.40
2019-04-29T21:52:29.912Z,15.70
2019-04-29T21:54:58.914Z,15.80
2019-04-29T21:57:28.143Z,16.00
2019-04-29T21:59:57.180Z,16.40
2019-04-29T22:02:26.257Z,16.30
2019-04-29T22:04:55.856Z,16.00
2019-04-29T22:07:25.807Z,15.20
2019-04-29T22:09:55.648Z,15.90
2019-04-29T22:12:24.813Z,17.17
2019-04-29T22:14:56.083Z,15.57
2019-04-29T22:17:26.360Z,16.03
2019-04-29T22:19:57.374Z,21.73
2019-04-29T22:22:25.867Z,16.80
2019-04-29T22:24:57.521Z,16.13
2019-04-29T22:27:25.652Z,14.57
2019-04-29T22:29:55.620Z,15.20
2019-04-29T22:32:24.825Z,13.87
2019-04-29T22:35:00.713Z,14.07
2019-04-29T22:37:25.495Z,14.37
2019-04-29T22:39:54.522Z,13.93
2019-04-29T22:42:32.116Z,16.53
2019-04-29T22:45:01.174Z,14.17
2019-04-29T22:47:30.182Z,13.73
2019-04-29T22:50:03.326Z,14.23
2019-04-29T22:52:31.920Z,13.80
2019-04-29T22:55:01.782Z,14.53
2019-04-29T22:57:31.738Z,15.30
2019-04-29T23:00:00.826Z,15.37
2019-04-29T23:02:30.015Z,15.90
2019-04-29T23:04:58.986Z,15.70
2019-04-29T23:07:28.228Z,14.90
2019-04-29T23:09:57.601Z,16.07
2019-04-29T23:12:26.711Z,16.43
2019-04-29T23:14:56.562Z,15.23
2019-04-29T23:17:26.601Z,16.00
2019-04-29T23:20:00.473Z,16.30
2019-04-29T23:22:52.646Z,15.97
2019-04-29T23:25:29.920Z,17.97
2019-04-29T23:27:58.582Z,16.43
2019-04-29T23:30:28.669Z,17.33
2019-04-29T23:32:57.776Z,16.57
2019-04-29T23:35:26.932Z,16.87
2019-04-29T23:37:58.818Z,16.67
2019-04-29T23:40:26.675Z,16.10
2019-04-29T23:42:57.426Z,18.20
2019-04-29T23:45:26.870Z,16.33
2019-04-29T23:47:55.787Z,16.23
2019-04-29T23:50:27.851Z,16.90
2019-04-29T23:52:55.763Z,15.63
2019-04-29T23:55:28.087Z,17.93
2019-04-29T23:58:24.331Z,15.80
